sensor_id;sensor_type;location;lat;lon;timestamp;P1;durP1;ratioP1;P2;durP2;ratioP2
36575;SDS011;45700;50.930;5.168;2023-04-15T00:01:44;38.80;;;12.75;;
36575;SDS011;45700;50.930;5.168;2023-04-15T00:05:45;13.63;;;6.30;;
36575;SDS011;45700;50.930;5.168;2023-04-15T00:09:46;7.68;;;3.10;;
36575;SDS011;45700;50.930;5.168;2023-04-15T00:13:47;5.60;;;2.95;;
36575;SDS011;45700;50.930;5.168;2023-04-15T00:17:49;5.95;;;3.15;;
36575;SDS011;45700;50.930;5.168;2023-04-15T00:21:51;6.72;;;3.17;;
36575;SDS011;45700;50.930;5.168;2023-04-15T00:25:52;4.70;;;2.75;;
36575;SDS011;45700;50.930;5.168;2023-04-15T00:29:53;8.38;;;2.95;;
36575;SDS011;45700;50.930;5.168;2023-04-15T00:33:54;6.38;;;2.72;;
36575;SDS011;45700;50.930;5.168;2023-04-15T00:37:55;5.95;;;3.05;;
36575;SDS011;45700;50.930;5.168;2023-04-15T00:41:56;6.20;;;2.95;;
36575;SDS011;45700;50.930;5.168;2023-04-15T00:45:57;7.55;;;3.47;;
36575;SDS011;45700;50.930;5.168;2023-04-15T00:49:59;5.90;;;3.25;;
36575;SDS011;45700;50.930;5.168;2023-04-15T00:54:00;11.70;;;3.58;;
36575;SDS011;45700;50.930;5.168;2023-04-15T00:58:02;9.77;;;3.63;;
36575;SDS011;45700;50.930;5.168;2023-04-15T01:02:03;8.38;;;3.30;;
36575;SDS011;45700;50.930;5.168;2023-04-15T01:06:04;10.93;;;3.97;;
36575;SDS011;45700;50.930;5.168;2023-04-15T01:10:05;7.35;;;2.95;;
36575;SDS011;45700;50.930;5.168;2023-04-15T01:14:07;6.30;;;3.30;;
36575;SDS011;45700;50.930;5.168;2023-04-15T01:18:09;6.97;;;3.13;;
36575;SDS011;45700;50.930;5.168;2023-04-15T01:22:10;11.05;;;3.63;;
36575;SDS011;45700;50.930;5.168;2023-04-15T01:26:12;9.88;;;3.38;;
36575;SDS011;45700;50.930;5.168;2023-04-15T01:30:13;7.22;;;3.35;;
36575;SDS011;45700;50.930;5.168;2023-04-15T01:34:14;8.35;;;3.28;;
36575;SDS011;45700;50.930;5.168;2023-04-15T01:38:15;11.73;;;3.33;;
36575;SDS011;45700;50.930;5.168;2023-04-15T01:42:17;12.98;;;3.75;;
36575;SDS011;45700;50.930;5.168;2023-04-15T01:46:18;11.80;;;4.15;;
36575;SDS011;45700;50.930;5.168;2023-04-15T01:50:19;9.45;;;3.83;;
36575;SDS011;45700;50.930;5.168;2023-04-15T01:54:20;7.35;;;2.85;;
36575;SDS011;45700;50.930;5.168;2023-04-15T01:58:21;8.75;;;3.33;;
36575;SDS011;45700;50.930;5.168;2023-04-15T02:02:22;7.38;;;3.15;;
36575;SDS011;45700;50.930;5.168;2023-04-15T02:06:23;6.60;;;3.50;;
36575;SDS011;45700;50.930;5.168;2023-04-15T02:10:24;5.30;;;2.75;;
36575;SDS011;45700;50.930;5.168;2023-04-15T02:14:26;9.40;;;3.75;;
36575;SDS011;45700;50.930;5.168;2023-04-15T02:18:27;6.70;;;3.00;;
36575;SDS011;45700;50.930;5.168;2023-04-15T02:22:28;3.90;;;2.65;;
36575;SDS011;45700;50.930;5.168;2023-04-15T02:26:29;5.10;;;2.50;;
36575;SDS011;45700;50.930;5.168;2023-04-15T02:30:33;5.85;;;2.70;;
36575;SDS011;45700;50.930;5.168;2023-04-15T02:34:34;4.03;;;2.38;;
36575;SDS011;45700;50.930;5.168;2023-04-15T02:38:36;6.97;;;2.47;;
36575;SDS011;45700;50.930;5.168;2023-04-15T02:42:39;5.82;;;2.75;;
36575;SDS011;45700;50.930;5.168;2023-04-15T02:46:40;8.25;;;2.53;;
36575;SDS011;45700;50.930;5.168;2023-04-15T02:50:42;3.53;;;1.88;;
36575;SDS011;45700;50.930;5.168;2023-04-15T02:54:43;6.78;;;2.45;;
36575;SDS011;45700;50.930;5.168;2023-04-15T02:58:44;4.68;;;2.42;;
36575;SDS011;45700;50.930;5.168;2023-04-15T03:02:45;5.85;;;2.42;;
36575;SDS011;45700;50.930;5.168;2023-04-15T03:06:46;5.38;;;2.35;;
36575;SDS011;45700;50.930;5.168;2023-04-15T03:10:47;4.93;;;2.88;;
36575;SDS011;45700;50.930;5.168;2023-04-15T03:14:51;4.47;;;1.98;;
36575;SDS011;45700;50.930;5.168;2023-04-15T03:18:52;5.72;;;2.38;;
36575;SDS011;45700;50.930;5.168;2023-04-15T03:22:56;3.33;;;2.20;;
36575;SDS011;45700;50.930;5.168;2023-04-15T03:26:57;8.38;;;2.53;;
36575;SDS011;45700;50.930;5.168;2023-04-15T03:30:58;4.10;;;2.08;;
36575;SDS011;45700;50.930;5.168;2023-04-15T03:34:59;3.97;;;2.15;;
36575;SDS011;45700;50.930;5.168;2023-04-15T03:39:00;4.82;;;2.40;;
36575;SDS011;45700;50.930;5.168;2023-04-15T03:43:02;3.75;;;2.40;;
36575;SDS011;45700;50.930;5.168;2023-04-15T03:47:03;3.13;;;2.10;;
36575;SDS011;45700;50.930;5.168;2023-04-15T03:51:04;8.50;;;2.90;;
36575;SDS011;45700;50.930;5.168;2023-04-15T03:55:05;11.15;;;2.60;;
36575;SDS011;45700;50.930;5.168;2023-04-15T03:59:07;5.85;;;2.03;;
36575;SDS011;45700;50.930;5.168;2023-04-15T04:03:08;7.45;;;2.35;;
36575;SDS011;45700;50.930;5.168;2023-04-15T04:07:14;5.40;;;1.80;;
36575;SDS011;45700;50.930;5.168;2023-04-15T04:11:15;7.88;;;2.50;;
36575;SDS011;45700;50.930;5.168;2023-04-15T04:15:16;9.88;;;2.55;;
36575;SDS011;45700;50.930;5.168;2023-04-15T04:19:17;5.70;;;2.47;;
36575;SDS011;45700;50.930;5.168;2023-04-15T04:23:19;4.50;;;2.38;;
36575;SDS011;45700;50.930;5.168;2023-04-15T04:27:20;8.02;;;2.42;;
36575;SDS011;45700;50.930;5.168;2023-04-15T04:31:21;6.18;;;2.95;;
36575;SDS011;45700;50.930;5.168;2023-04-15T04:35:22;5.22;;;2.33;;
36575;SDS011;45700;50.930;5.168;2023-04-15T04:39:23;7.55;;;2.58;;
36575;SDS011;45700;50.930;5.168;2023-04-15T04:43:24;8.15;;;2.75;;
36575;SDS011;45700;50.930;5.168;2023-04-15T04:47:25;9.18;;;2.83;;
36575;SDS011;45700;50.930;5.168;2023-04-15T04:51:27;4.75;;;2.85;;
36575;SDS011;45700;50.930;5.168;2023-04-15T04:55:28;7.82;;;3.30;;
36575;SDS011;45700;50.930;5.168;2023-04-15T04:59:29;5.80;;;2.50;;
36575;SDS011;45700;50.930;5.168;2023-04-15T05:03:30;10.18;;;3.80;;
36575;SDS011;45700;50.930;5.168;2023-04-15T05:07:31;9.93;;;2.40;;
36575;SDS011;45700;50.930;5.168;2023-04-15T05:11:32;11.25;;;2.70;;
36575;SDS011;45700;50.930;5.168;2023-04-15T05:15:33;7.03;;;2.63;;
36575;SDS011;45700;50.930;5.168;2023-04-15T05:19:35;7.75;;;2.35;;
36575;SDS011;45700;50.930;5.168;2023-04-15T05:23:36;9.90;;;2.55;;
36575;SDS011;45700;50.930;5.168;2023-04-15T05:27:38;5.47;;;2.53;;
36575;SDS011;45700;50.930;5.168;2023-04-15T05:31:38;8.27;;;2.53;;
36575;SDS011;45700;50.930;5.168;2023-04-15T05:35:40;8.98;;;2.60;;
36575;SDS011;45700;50.930;5.168;2023-04-15T05:39:41;5.80;;;2.95;;
36575;SDS011;45700;50.930;5.168;2023-04-15T05:43:42;6.85;;;2.85;;
36575;SDS011;45700;50.930;5.168;2023-04-15T05:47:43;8.27;;;2.30;;
36575;SDS011;45700;50.930;5.168;2023-04-15T05:51:44;6.03;;;2.40;;
36575;SDS011;45700;50.930;5.168;2023-04-15T05:55:46;7.80;;;2.30;;
36575;SDS011;45700;50.930;5.168;2023-04-15T05:59:48;5.57;;;2.38;;
36575;SDS011;45700;50.930;5.168;2023-04-15T06:03:51;8.07;;;2.70;;
36575;SDS011;45700;50.930;5.168;2023-04-15T06:07:52;7.70;;;2.80;;
36575;SDS011;45700;50.930;5.168;2023-04-15T06:11:53;7.95;;;3.13;;
36575;SDS011;45700;50.930;5.168;2023-04-15T06:15:55;10.48;;;2.75;;
36575;SDS011;45700;50.930;5.168;2023-04-15T06:19:56;6.70;;;3.30;;
36575;SDS011;45700;50.930;5.168;2023-04-15T06:23:58;9.35;;;3.30;;
36575;SDS011;45700;50.930;5.168;2023-04-15T06:28:02;7.15;;;3.33;;
36575;SDS011;45700;50.930;5.168;2023-04-15T06:32:03;9.80;;;3.78;;
36575;SDS011;45700;50.930;5.168;2023-04-15T06:36:04;7.65;;;3.55;;
36575;SDS011;45700;50.930;5.168;2023-04-15T06:40:06;10.10;;;3.72;;
36575;SDS011;45700;50.930;5.168;2023-04-15T06:44:07;10.57;;;4.85;;
36575;SDS011;45700;50.930;5.168;2023-04-15T06:48:08;13.85;;;4.40;;
36575;SDS011;45700;50.930;5.168;2023-04-15T06:52:09;14.50;;;4.85;;
36575;SDS011;45700;50.930;5.168;2023-04-15T06:56:11;13.52;;;4.47;;
36575;SDS011;45700;50.930;5.168;2023-04-15T07:00:12;9.30;;;4.30;;
36575;SDS011;45700;50.930;5.168;2023-04-15T07:04:13;10.75;;;4.78;;
36575;SDS011;45700;50.930;5.168;2023-04-15T07:08:14;10.45;;;4.95;;
36575;SDS011;45700;50.930;5.168;2023-04-15T07:12:15;12.88;;;4.50;;
36575;SDS011;45700;50.930;5.168;2023-04-15T07:16:17;10.63;;;4.72;;
36575;SDS011;45700;50.930;5.168;2023-04-15T07:20:18;9.13;;;4.07;;
36575;SDS011;45700;50.930;5.168;2023-04-15T07:24:19;7.20;;;4.63;;
36575;SDS011;45700;50.930;5.168;2023-04-15T07:28:20;8.23;;;5.25;;
36575;SDS011;45700;50.930;5.168;2023-04-15T07:32:21;12.27;;;4.63;;
36575;SDS011;45700;50.930;5.168;2023-04-15T07:36:22;12.48;;;4.60;;
36575;SDS011;45700;50.930;5.168;2023-04-15T07:40:23;8.25;;;4.68;;
36575;SDS011;45700;50.930;5.168;2023-04-15T07:44:24;9.32;;;3.58;;
36575;SDS011;45700;50.930;5.168;2023-04-15T07:48:26;7.43;;;3.83;;
36575;SDS011;45700;50.930;5.168;2023-04-15T07:52:27;11.98;;;4.85;;
36575;SDS011;45700;50.930;5.168;2023-04-15T07:56:28;6.05;;;3.53;;
36575;SDS011;45700;50.930;5.168;2023-04-15T08:00:29;8.00;;;4.38;;
36575;SDS011;45700;50.930;5.168;2023-04-15T08:04:31;10.98;;;4.03;;
36575;SDS011;45700;50.930;5.168;2023-04-15T08:08:32;10.35;;;4.00;;
36575;SDS011;45700;50.930;5.168;2023-04-15T08:12:33;7.32;;;3.88;;
36575;SDS011;45700;50.930;5.168;2023-04-15T08:16:35;9.20;;;4.15;;
36575;SDS011;45700;50.930;5.168;2023-04-15T08:20:36;8.05;;;4.40;;
36575;SDS011;45700;50.930;5.168;2023-04-15T08:24:37;11.82;;;4.80;;
36575;SDS011;45700;50.930;5.168;2023-04-15T08:28:39;12.82;;;5.60;;
36575;SDS011;45700;50.930;5.168;2023-04-15T08:32:46;9.13;;;4.97;;
36575;SDS011;45700;50.930;5.168;2023-04-15T08:36:47;15.05;;;6.78;;
36575;SDS011;45700;50.930;5.168;2023-04-15T08:40:48;15.73;;;7.35;;
36575;SDS011;45700;50.930;5.168;2023-04-15T08:44:50;12.98;;;5.45;;
36575;SDS011;45700;50.930;5.168;2023-04-15T08:48:51;13.77;;;6.10;;
36575;SDS011;45700;50.930;5.168;2023-04-15T08:52:56;13.25;;;5.07;;
36575;SDS011;45700;50.930;5.168;2023-04-15T08:56:58;9.40;;;5.20;;
36575;SDS011;45700;50.930;5.168;2023-04-15T09:01:01;9.35;;;4.95;;
36575;SDS011;45700;50.930;5.168;2023-04-15T09:05:02;12.07;;;5.40;;
36575;SDS011;45700;50.930;5.168;2023-04-15T09:09:05;10.20;;;4.82;;
36575;SDS011;45700;50.930;5.168;2023-04-15T09:13:06;10.80;;;4.82;;
36575;SDS011;45700;50.930;5.168;2023-04-15T09:17:08;7.90;;;4.28;;
36575;SDS011;45700;50.930;5.168;2023-04-15T09:21:11;8.73;;;4.68;;
36575;SDS011;45700;50.930;5.168;2023-04-15T09:29:23;10.32;;;4.18;;
36575;SDS011;45700;50.930;5.168;2023-04-15T09:33:28;8.95;;;4.30;;
36575;SDS011;45700;50.930;5.168;2023-04-15T09:37:35;9.05;;;2.78;;
36575;SDS011;45700;50.930;5.168;2023-04-15T09:41:36;7.47;;;3.85;;
36575;SDS011;45700;50.930;5.168;2023-04-15T09:45:37;9.13;;;4.05;;
36575;SDS011;45700;50.930;5.168;2023-04-15T09:49:41;10.88;;;3.97;;
36575;SDS011;45700;50.930;5.168;2023-04-15T09:53:55;7.43;;;3.63;;
36575;SDS011;45700;50.930;5.168;2023-04-15T09:57:56;9.50;;;3.70;;
36575;SDS011;45700;50.930;5.168;2023-04-15T10:01:57;7.18;;;2.90;;
36575;SDS011;45700;50.930;5.168;2023-04-15T10:05:58;6.13;;;3.17;;
36575;SDS011;45700;50.930;5.168;2023-04-15T10:10:00;6.32;;;3.28;;
36575;SDS011;45700;50.930;5.168;2023-04-15T10:14:01;6.05;;;3.05;;
36575;SDS011;45700;50.930;5.168;2023-04-15T10:18:02;7.32;;;3.28;;
36575;SDS011;45700;50.930;5.168;2023-04-15T10:22:05;5.82;;;3.00;;
36575;SDS011;45700;50.930;5.168;2023-04-15T10:26:06;4.32;;;2.33;;
36575;SDS011;45700;50.930;5.168;2023-04-15T10:30:08;4.30;;;2.22;;
36575;SDS011;45700;50.930;5.168;2023-04-15T10:34:09;5.22;;;2.25;;
36575;SDS011;45700;50.930;5.168;2023-04-15T10:38:30;6.50;;;2.60;;
36575;SDS011;45700;50.930;5.168;2023-04-15T10:42:34;3.45;;;2.10;;
36575;SDS011;45700;50.930;5.168;2023-04-15T10:46:42;4.32;;;1.65;;
36575;SDS011;45700;50.930;5.168;2023-04-15T10:50:54;4.20;;;1.90;;
36575;SDS011;45700;50.930;5.168;2023-04-15T10:55:02;4.55;;;2.05;;
36575;SDS011;45700;50.930;5.168;2023-04-15T10:59:04;3.57;;;1.70;;
36575;SDS011;45700;50.930;5.168;2023-04-15T11:03:09;3.53;;;1.38;;
36575;SDS011;45700;50.930;5.168;2023-04-15T11:07:10;2.33;;;1.33;;
36575;SDS011;45700;50.930;5.168;2023-04-15T11:11:12;4.05;;;1.30;;
36575;SDS011;45700;50.930;5.168;2023-04-15T11:19:37;2.75;;;1.67;;
36575;SDS011;45700;50.930;5.168;2023-04-15T11:23:39;2.50;;;1.40;;
36575;SDS011;45700;50.930;5.168;2023-04-15T11:27:43;4.75;;;1.10;;
36575;SDS011;45700;50.930;5.168;2023-04-15T11:31:46;2.45;;;1.08;;
36575;SDS011;45700;50.930;5.168;2023-04-15T11:35:48;1.42;;;0.90;;
36575;SDS011;45700;50.930;5.168;2023-04-15T11:39:49;4.35;;;1.33;;
36575;SDS011;45700;50.930;5.168;2023-04-15T11:43:51;2.20;;;1.23;;
36575;SDS011;45700;50.930;5.168;2023-04-15T11:47:52;2.30;;;1.02;;
36575;SDS011;45700;50.930;5.168;2023-04-15T11:51:53;2.65;;;1.60;;
36575;SDS011;45700;50.930;5.168;2023-04-15T11:55:54;2.67;;;1.30;;
36575;SDS011;45700;50.930;5.168;2023-04-15T11:59:55;2.35;;;1.30;;
36575;SDS011;45700;50.930;5.168;2023-04-15T12:03:57;2.58;;;1.15;;
36575;SDS011;45700;50.930;5.168;2023-04-15T12:08:00;2.38;;;1.45;;
36575;SDS011;45700;50.930;5.168;2023-04-15T12:12:01;1.45;;;1.08;;
36575;SDS011;45700;50.930;5.168;2023-04-15T12:16:02;2.85;;;1.10;;
36575;SDS011;45700;50.930;5.168;2023-04-15T12:20:04;3.35;;;1.00;;
36575;SDS011;45700;50.930;5.168;2023-04-15T12:24:05;3.10;;;1.17;;
36575;SDS011;45700;50.930;5.168;2023-04-15T12:28:10;2.72;;;1.23;;
36575;SDS011;45700;50.930;5.168;2023-04-15T12:32:12;2.90;;;1.30;;
36575;SDS011;45700;50.930;5.168;2023-04-15T12:36:13;2.85;;;1.27;;
36575;SDS011;45700;50.930;5.168;2023-04-15T12:40:15;4.10;;;1.30;;
36575;SDS011;45700;50.930;5.168;2023-04-15T12:44:16;1.20;;;0.90;;
36575;SDS011;45700;50.930;5.168;2023-04-15T12:48:17;0.85;;;0.77;;
36575;SDS011;45700;50.930;5.168;2023-04-15T12:52:18;2.35;;;0.90;;
36575;SDS011;45700;50.930;5.168;2023-04-15T12:56:19;2.63;;;1.13;;
36575;SDS011;45700;50.930;5.168;2023-04-15T13:00:21;1.55;;;0.80;;
36575;SDS011;45700;50.930;5.168;2023-04-15T13:04:22;1.00;;;0.88;;
36575;SDS011;45700;50.930;5.168;2023-04-15T13:08:23;2.25;;;1.10;;
36575;SDS011;45700;50.930;5.168;2023-04-15T13:12:25;2.10;;;1.25;;
36575;SDS011;45700;50.930;5.168;2023-04-15T13:16:26;3.65;;;1.25;;
36575;SDS011;45700;50.930;5.168;2023-04-15T13:20:27;1.63;;;0.93;;
36575;SDS011;45700;50.930;5.168;2023-04-15T13:24:28;1.55;;;1.25;;
36575;SDS011;45700;50.930;5.168;2023-04-15T13:28:29;3.60;;;1.02;;
36575;SDS011;45700;50.930;5.168;2023-04-15T13:32:30;2.03;;;0.98;;
36575;SDS011;45700;50.930;5.168;2023-04-15T13:36:31;1.85;;;1.10;;
36575;SDS011;45700;50.930;5.168;2023-04-15T13:40:32;2.05;;;0.90;;
36575;SDS011;45700;50.930;5.168;2023-04-15T13:44:33;1.90;;;1.05;;
36575;SDS011;45700;50.930;5.168;2023-04-15T13:48:34;2.00;;;1.00;;
36575;SDS011;45700;50.930;5.168;2023-04-15T13:52:36;1.95;;;1.10;;
36575;SDS011;45700;50.930;5.168;2023-04-15T13:56:37;4.03;;;0.93;;
36575;SDS011;45700;50.930;5.168;2023-04-15T14:00:37;2.20;;;1.13;;
36575;SDS011;45700;50.930;5.168;2023-04-15T14:04:39;0.55;;;0.52;;
36575;SDS011;45700;50.930;5.168;2023-04-15T14:08:40;2.50;;;1.10;;
36575;SDS011;45700;50.930;5.168;2023-04-15T14:12:41;2.63;;;1.05;;
36575;SDS011;45700;50.930;5.168;2023-04-15T14:16:42;1.50;;;1.00;;
36575;SDS011;45700;50.930;5.168;2023-04-15T14:20:43;1.85;;;1.10;;
36575;SDS011;45700;50.930;5.168;2023-04-15T14:24:44;1.70;;;1.52;;
36575;SDS011;45700;50.930;5.168;2023-04-15T14:28:47;2.00;;;1.17;;
36575;SDS011;45700;50.930;5.168;2023-04-15T14:32:48;2.97;;;0.90;;
36575;SDS011;45700;50.930;5.168;2023-04-15T14:36:50;2.80;;;1.15;;
36575;SDS011;45700;50.930;5.168;2023-04-15T14:40:54;1.52;;;1.00;;
36575;SDS011;45700;50.930;5.168;2023-04-15T14:44:55;2.25;;;1.00;;
36575;SDS011;45700;50.930;5.168;2023-04-15T14:48:56;1.17;;;0.82;;
36575;SDS011;45700;50.930;5.168;2023-04-15T14:52:57;2.28;;;1.00;;
36575;SDS011;45700;50.930;5.168;2023-04-15T14:56:58;2.30;;;1.00;;
36575;SDS011;45700;50.930;5.168;2023-04-15T15:01:01;1.48;;;0.93;;
36575;SDS011;45700;50.930;5.168;2023-04-15T15:05:03;1.35;;;1.10;;
36575;SDS011;45700;50.930;5.168;2023-04-15T15:09:04;1.42;;;0.80;;
36575;SDS011;45700;50.930;5.168;2023-04-15T15:13:06;1.13;;;0.70;;
36575;SDS011;45700;50.930;5.168;2023-04-15T15:17:08;1.55;;;0.68;;
36575;SDS011;45700;50.930;5.168;2023-04-15T15:21:09;4.00;;;0.75;;
36575;SDS011;45700;50.930;5.168;2023-04-15T15:25:10;1.40;;;1.08;;
36575;SDS011;45700;50.930;5.168;2023-04-15T15:29:11;0.90;;;0.70;;
36575;SDS011;45700;50.930;5.168;2023-04-15T15:33:12;3.00;;;0.98;;
36575;SDS011;45700;50.930;5.168;2023-04-15T15:37:13;1.52;;;0.93;;
36575;SDS011;45700;50.930;5.168;2023-04-15T15:41:14;1.73;;;0.90;;
36575;SDS011;45700;50.930;5.168;2023-04-15T15:45:15;1.33;;;1.00;;
36575;SDS011;45700;50.930;5.168;2023-04-15T15:49:16;2.10;;;1.10;;
36575;SDS011;45700;50.930;5.168;2023-04-15T15:53:18;1.52;;;0.63;;
36575;SDS011;45700;50.930;5.168;2023-04-15T15:57:20;0.90;;;0.70;;
36575;SDS011;45700;50.930;5.168;2023-04-15T16:01:21;1.40;;;0.70;;
36575;SDS011;45700;50.930;5.168;2023-04-15T16:05:22;1.67;;;0.80;;
36575;SDS011;45700;50.930;5.168;2023-04-15T16:09:23;0.85;;;0.85;;
36575;SDS011;45700;50.930;5.168;2023-04-15T16:13:24;3.30;;;1.00;;
36575;SDS011;45700;50.930;5.168;2023-04-15T16:17:25;1.90;;;1.25;;
36575;SDS011;45700;50.930;5.168;2023-04-15T16:21:26;1.00;;;0.77;;
36575;SDS011;45700;50.930;5.168;2023-04-15T16:25:27;0.80;;;0.60;;
36575;SDS011;45700;50.930;5.168;2023-04-15T16:29:28;1.42;;;0.65;;
36575;SDS011;45700;50.930;5.168;2023-04-15T16:33:30;1.73;;;0.80;;
36575;SDS011;45700;50.930;5.168;2023-04-15T16:37:31;3.20;;;0.90;;
36575;SDS011;45700;50.930;5.168;2023-04-15T16:41:33;3.15;;;0.90;;
36575;SDS011;45700;50.930;5.168;2023-04-15T16:45:34;2.70;;;1.08;;
36575;SDS011;45700;50.930;5.168;2023-04-15T16:49:35;1.90;;;0.75;;
36575;SDS011;45700;50.930;5.168;2023-04-15T16:53:36;0.68;;;0.60;;
36575;SDS011;45700;50.930;5.168;2023-04-15T16:57:37;4.40;;;0.73;;
36575;SDS011;45700;50.930;5.168;2023-04-15T17:01:38;0.98;;;0.80;;
36575;SDS011;45700;50.930;5.168;2023-04-15T17:05:39;0.52;;;0.40;;
36575;SDS011;45700;50.930;5.168;2023-04-15T17:09:41;2.63;;;0.88;;
36575;SDS011;45700;50.930;5.168;2023-04-15T17:13:42;0.95;;;0.57;;
36575;SDS011;45700;50.930;5.168;2023-04-15T17:17:43;1.70;;;0.95;;
36575;SDS011;45700;50.930;5.168;2023-04-15T17:21:44;3.72;;;1.10;;
36575;SDS011;45700;50.930;5.168;2023-04-15T17:25:45;1.13;;;1.00;;
36575;SDS011;45700;50.930;5.168;2023-04-15T17:29:46;4.53;;;0.63;;
36575;SDS011;45700;50.930;5.168;2023-04-15T17:33:47;3.20;;;0.73;;
36575;SDS011;45700;50.930;5.168;2023-04-15T17:37:48;2.10;;;0.70;;
36575;SDS011;45700;50.930;5.168;2023-04-15T17:41:49;1.33;;;0.80;;
36575;SDS011;45700;50.930;5.168;2023-04-15T17:45:50;1.90;;;0.73;;
36575;SDS011;45700;50.930;5.168;2023-04-15T17:49:51;2.72;;;0.60;;
36575;SDS011;45700;50.930;5.168;2023-04-15T17:53:52;1.13;;;0.40;;
36575;SDS011;45700;50.930;5.168;2023-04-15T17:57:53;4.05;;;1.00;;
36575;SDS011;45700;50.930;5.168;2023-04-15T18:01:54;2.53;;;0.70;;
36575;SDS011;45700;50.930;5.168;2023-04-15T18:05:55;3.25;;;0.90;;
36575;SDS011;45700;50.930;5.168;2023-04-15T18:09:56;5.45;;;1.08;;
36575;SDS011;45700;50.930;5.168;2023-04-15T18:13:58;0.60;;;0.60;;
36575;SDS011;45700;50.930;5.168;2023-04-15T18:17:59;1.73;;;0.70;;
36575;SDS011;45700;50.930;5.168;2023-04-15T18:22:00;2.47;;;0.93;;
36575;SDS011;45700;50.930;5.168;2023-04-15T18:26:02;0.95;;;0.80;;
36575;SDS011;45700;50.930;5.168;2023-04-15T18:30:03;7.20;;;1.05;;
36575;SDS011;45700;50.930;5.168;2023-04-15T18:34:04;1.55;;;0.85;;
36575;SDS011;45700;50.930;5.168;2023-04-15T18:38:06;6.25;;;0.90;;
36575;SDS011;45700;50.930;5.168;2023-04-15T18:42:07;3.45;;;1.65;;
36575;SDS011;45700;50.930;5.168;2023-04-15T18:46:08;1.15;;;0.70;;
36575;SDS011;45700;50.930;5.168;2023-04-15T18:50:11;2.85;;;0.82;;
36575;SDS011;45700;50.930;5.168;2023-04-15T18:54:12;2.45;;;0.80;;
36575;SDS011;45700;50.930;5.168;2023-04-15T18:58:13;7.65;;;1.42;;
36575;SDS011;45700;50.930;5.168;2023-04-15T19:02:14;2.63;;;1.35;;
36575;SDS011;45700;50.930;5.168;2023-04-15T19:06:15;2.13;;;1.00;;
36575;SDS011;45700;50.930;5.168;2023-04-15T19:10:16;1.63;;;1.13;;
36575;SDS011;45700;50.930;5.168;2023-04-15T19:14:17;6.00;;;1.23;;
36575;SDS011;45700;50.930;5.168;2023-04-15T19:18:18;3.40;;;1.27;;
36575;SDS011;45700;50.930;5.168;2023-04-15T19:22:19;3.90;;;1.40;;
36575;SDS011;45700;50.930;5.168;2023-04-15T19:26:20;4.05;;;1.15;;
36575;SDS011;45700;50.930;5.168;2023-04-15T19:30:21;4.82;;;1.13;;
36575;SDS011;45700;50.930;5.168;2023-04-15T19:34:22;3.55;;;1.25;;
36575;SDS011;45700;50.930;5.168;2023-04-15T19:38:24;6.70;;;2.35;;
36575;SDS011;45700;50.930;5.168;2023-04-15T19:42:25;1.48;;;0.80;;
36575;SDS011;45700;50.930;5.168;2023-04-15T19:46:26;2.03;;;1.00;;
36575;SDS011;45700;50.930;5.168;2023-04-15T19:50:27;3.80;;;0.85;;
36575;SDS011;45700;50.930;5.168;2023-04-15T19:54:28;5.65;;;1.00;;
36575;SDS011;45700;50.930;5.168;2023-04-15T19:58:30;2.92;;;1.08;;
36575;SDS011;45700;50.930;5.168;2023-04-15T20:02:31;1.98;;;0.95;;
36575;SDS011;45700;50.930;5.168;2023-04-15T20:06:32;3.90;;;1.35;;
36575;SDS011;45700;50.930;5.168;2023-04-15T20:10:34;3.60;;;1.33;;
36575;SDS011;45700;50.930;5.168;2023-04-15T20:14:35;7.43;;;1.30;;
36575;SDS011;45700;50.930;5.168;2023-04-15T20:18:36;3.90;;;1.10;;
36575;SDS011;45700;50.930;5.168;2023-04-15T20:22:38;2.33;;;1.10;;
36575;SDS011;45700;50.930;5.168;2023-04-15T20:26:39;2.65;;;0.93;;
36575;SDS011;45700;50.930;5.168;2023-04-15T20:30:40;4.30;;;1.30;;
36575;SDS011;45700;50.930;5.168;2023-04-15T20:34:41;6.00;;;1.30;;
36575;SDS011;45700;50.930;5.168;2023-04-15T20:38:42;4.70;;;1.20;;
36575;SDS011;45700;50.930;5.168;2023-04-15T20:42:43;4.38;;;1.42;;
36575;SDS011;45700;50.930;5.168;2023-04-15T20:46:44;5.32;;;1.30;;
36575;SDS011;45700;50.930;5.168;2023-04-15T20:50:45;4.90;;;1.50;;
36575;SDS011;45700;50.930;5.168;2023-04-15T20:54:46;8.38;;;2.10;;
36575;SDS011;45700;50.930;5.168;2023-04-15T20:58:47;4.95;;;1.42;;
36575;SDS011;45700;50.930;5.168;2023-04-15T21:02:48;1.88;;;0.98;;
36575;SDS011;45700;50.930;5.168;2023-04-15T21:06:49;5.65;;;2.38;;
36575;SDS011;45700;50.930;5.168;2023-04-15T21:10:54;8.77;;;2.15;;
36575;SDS011;45700;50.930;5.168;2023-04-15T21:14:55;4.95;;;1.80;;
36575;SDS011;45700;50.930;5.168;2023-04-15T21:18:56;6.80;;;1.40;;
36575;SDS011;45700;50.930;5.168;2023-04-15T21:22:57;3.72;;;1.70;;
36575;SDS011;45700;50.930;5.168;2023-04-15T21:26:58;4.60;;;1.52;;
36575;SDS011;45700;50.930;5.168;2023-04-15T21:31:00;6.53;;;1.75;;
36575;SDS011;45700;50.930;5.168;2023-04-15T21:35:01;6.78;;;2.03;;
36575;SDS011;45700;50.930;5.168;2023-04-15T21:39:02;10.82;;;2.72;;
36575;SDS011;45700;50.930;5.168;2023-04-15T21:43:04;4.00;;;2.30;;
36575;SDS011;45700;50.930;5.168;2023-04-15T21:47:05;6.20;;;2.67;;
36575;SDS011;45700;50.930;5.168;2023-04-15T21:51:07;7.45;;;2.75;;
36575;SDS011;45700;50.930;5.168;2023-04-15T21:55:08;6.80;;;3.30;;
36575;SDS011;45700;50.930;5.168;2023-04-15T21:59:09;10.00;;;3.22;;
36575;SDS011;45700;50.930;5.168;2023-04-15T22:03:10;7.32;;;3.33;;
36575;SDS011;45700;50.930;5.168;2023-04-15T22:07:11;7.10;;;2.95;;
36575;SDS011;45700;50.930;5.168;2023-04-15T22:11:17;8.10;;;3.10;;
36575;SDS011;45700;50.930;5.168;2023-04-15T22:15:20;7.83;;;2.70;;
36575;SDS011;45700;50.930;5.168;2023-04-15T22:19:21;6.78;;;2.63;;
36575;SDS011;45700;50.930;5.168;2023-04-15T22:23:22;5.68;;;2.50;;
36575;SDS011;45700;50.930;5.168;2023-04-15T22:27:23;3.08;;;2.30;;
36575;SDS011;45700;50.930;5.168;2023-04-15T22:31:24;8.68;;;2.65;;
36575;SDS011;45700;50.930;5.168;2023-04-15T22:35:25;3.65;;;2.10;;
36575;SDS011;45700;50.930;5.168;2023-04-15T22:39:26;4.07;;;2.38;;
36575;SDS011;45700;50.930;5.168;2023-04-15T22:43:27;13.90;;;2.45;;
36575;SDS011;45700;50.930;5.168;2023-04-15T22:47:28;5.18;;;2.40;;
36575;SDS011;45700;50.930;5.168;2023-04-15T22:51:29;5.32;;;2.90;;
36575;SDS011;45700;50.930;5.168;2023-04-15T22:55:31;5.07;;;2.35;;
36575;SDS011;45700;50.930;5.168;2023-04-15T22:59:32;9.20;;;2.97;;
36575;SDS011;45700;50.930;5.168;2023-04-15T23:03:33;7.70;;;2.53;;
36575;SDS011;45700;50.930;5.168;2023-04-15T23:07:34;9.40;;;3.15;;
36575;SDS011;45700;50.930;5.168;2023-04-15T23:11:35;6.30;;;2.20;;
36575;SDS011;45700;50.930;5.168;2023-04-15T23:15:36;3.83;;;2.15;;
36575;SDS011;45700;50.930;5.168;2023-04-15T23:19:37;4.00;;;2.40;;
36575;SDS011;45700;50.930;5.168;2023-04-15T23:23:38;8.02;;;3.45;;
36575;SDS011;45700;50.930;5.168;2023-04-15T23:27:39;6.07;;;3.08;;
36575;SDS011;45700;50.930;5.168;2023-04-15T23:31:40;7.00;;;2.90;;
36575;SDS011;45700;50.930;5.168;2023-04-15T23:35:41;13.55;;;3.60;;
36575;SDS011;45700;50.930;5.168;2023-04-15T23:39:43;5.97;;;3.65;;
36575;SDS011;45700;50.930;5.168;2023-04-15T23:43:44;9.45;;;3.55;;
36575;SDS011;45700;50.930;5.168;2023-04-15T23:47:45;7.70;;;3.65;;
36575;SDS011;45700;50.930;5.168;2023-04-15T23:51:46;12.70;;;3.60;;
36575;SDS011;45700;50.930;5.168;2023-04-15T23:55:47;11.73;;;4.60;;
36575;SDS011;45700;50.930;5.168;2023-04-15T23:59:48;7.55;;;3.42;;
